createdAt,value
2018-05-14T00:00:44.358Z,14.98
2018-05-14T00:01:44.359Z,14.97
2018-05-14T00:02:44.357Z,15.03
2018-05-14T00:03:44.404Z,15.00
2018-05-14T00:04:44.350Z,15.09
2018-05-14T00:05:44.342Z,15.01
2018-05-14T00:06:44.339Z,15.00
2018-05-14T00:07:44.336Z,15.00
2018-05-14T00:08:44.333Z,15.04
2018-05-14T00:09:44.336Z,15.04
2018-05-14T00:10:44.331Z,15.09
2018-05-14T00:11:44.329Z,15.07
2018-05-14T00:12:44.363Z,15.01
2018-05-14T00:13:44.318Z,15.01
2018-05-14T00:14:44.313Z,15.07
2018-05-14T00:15:44.316Z,15.04
2018-05-14T00:16:44.315Z,15.03
2018-05-14T00:17:44.305Z,15.04
2018-05-14T00:18:44.305Z,15.12
2018-05-14T00:19:44.298Z,15.09
2018-05-14T00:20:44.296Z,15.00
2018-05-14T00:21:44.298Z,15.05
2018-05-14T00:22:44.295Z,15.05
2018-05-14T00:23:44.291Z,15.05
2018-05-14T00:24:44.288Z,15.01
2018-05-14T00:25:44.285Z,15.03
2018-05-14T00:26:44.278Z,15.03
2018-05-14T00:27:44.275Z,14.98
2018-05-14T00:28:44.272Z,15.05
2018-05-14T00:29:44.276Z,15.03
2018-05-14T00:30:44.271Z,15.05
2018-05-14T00:31:44.263Z,15.07
2018-05-14T00:32:44.260Z,15.09
2018-05-14T00:33:44.262Z,15.15
2018-05-14T00:34:44.259Z,15.04
2018-05-14T00:35:44.256Z,15.18
2018-05-14T00:36:44.251Z,15.09
2018-05-14T00:37:44.245Z,15.11
2018-05-14T00:38:44.241Z,15.13
2018-05-14T00:39:44.239Z,15.11
2018-05-14T00:40:44.236Z,15.15
2018-05-14T00:41:44.237Z,15.12
2018-05-14T00:42:44.233Z,15.16
2018-05-14T00:43:44.233Z,15.22
2018-05-14T00:44:44.229Z,15.13
2018-05-14T00:45:44.222Z,15.12
2018-05-14T00:46:44.218Z,15.15
2018-05-14T00:47:44.219Z,15.19
2018-05-14T00:48:44.216Z,15.15
2018-05-14T00:49:44.211Z,15.16
2018-05-14T00:50:44.206Z,15.15
2018-05-14T00:51:44.207Z,15.15
2018-05-14T00:52:44.200Z,15.22
2018-05-14T00:53:44.202Z,15.20
2018-05-14T00:54:44.198Z,15.15
2018-05-14T00:55:44.197Z,15.30
2018-05-14T00:56:44.192Z,15.18
2018-05-14T00:57:44.187Z,15.20
2018-05-14T00:58:44.186Z,15.15
2018-05-14T00:59:44.181Z,15.15
2018-05-14T01:00:44.176Z,15.16
2018-05-14T01:01:44.178Z,15.19
2018-05-14T01:02:44.177Z,15.13
2018-05-14T01:03:44.167Z,15.23
2018-05-14T01:04:44.164Z,15.13
2018-05-14T01:05:44.166Z,15.19
2018-05-14T01:06:44.163Z,15.25
2018-05-14T01:07:44.160Z,15.18
2018-05-14T01:08:44.157Z,15.23
2018-05-14T01:09:44.150Z,15.19
2018-05-14T01:10:44.146Z,15.16
2018-05-14T01:11:44.143Z,15.16
2018-05-14T01:12:44.141Z,15.27
2018-05-14T01:13:44.142Z,15.18
2018-05-14T01:14:44.139Z,15.18
2018-05-14T01:15:44.141Z,15.19
2018-05-14T01:16:44.135Z,15.18
2018-05-14T01:17:44.131Z,15.27
2018-05-14T01:18:44.122Z,15.18
2018-05-14T01:19:44.127Z,15.23
2018-05-14T01:20:44.123Z,15.16
2018-05-14T01:21:44.115Z,15.19
2018-05-14T01:22:44.111Z,15.15
2018-05-14T01:23:44.108Z,15.18
2018-05-14T01:24:44.105Z,15.18
2018-05-14T01:25:44.110Z,15.16
2018-05-14T01:26:44.105Z,15.19
2018-05-14T01:27:44.103Z,15.18
2018-05-14T01:28:44.098Z,15.15
2018-05-14T01:29:44.090Z,15.12
2018-05-14T01:30:44.086Z,15.05
2018-05-14T01:31:44.083Z,15.12
2018-05-14T01:32:44.081Z,15.16
2018-05-14T01:33:44.088Z,15.12
2018-05-14T01:34:44.079Z,15.16
2018-05-14T01:35:44.072Z,15.16
2018-05-14T01:36:44.069Z,15.16
2018-05-14T01:37:44.071Z,15.16
2018-05-14T01:38:44.067Z,15.19
2018-05-14T01:39:44.064Z,15.16
2018-05-14T01:40:44.062Z,15.12
2018-05-14T01:41:44.055Z,15.19
2018-05-14T01:42:44.051Z,15.12
2018-05-14T01:43:44.048Z,15.18
2018-05-14T01:44:44.045Z,15.16
2018-05-14T01:45:44.047Z,15.15
2018-05-14T01:46:44.044Z,15.03
2018-05-14T01:47:44.040Z,15.05
2018-05-14T01:48:44.037Z,15.04
2018-05-14T01:49:44.029Z,15.15
2018-05-14T01:50:44.026Z,15.09
2018-05-14T01:51:44.027Z,15.15
2018-05-14T01:52:44.025Z,15.15
2018-05-14T01:53:44.022Z,15.05
2018-05-14T01:54:44.013Z,15.12
2018-05-14T01:55:44.012Z,15.16
2018-05-14T01:56:44.008Z,15.12
2018-05-14T01:57:44.011Z,15.09
2018-05-14T01:58:44.006Z,15.13
2018-05-14T01:59:44.003Z,15.11
2018-05-14T02:00:44.001Z,15.20
2018-05-14T02:01:43.992Z,15.12
2018-05-14T02:02:43.989Z,15.15
2018-05-14T02:03:44.000Z,15.15
2018-05-14T02:04:43.983Z,15.19
2018-05-14T02:05:43.986Z,15.18
2018-05-14T02:06:44.042Z,15.19
2018-05-14T02:07:43.975Z,15.12
2018-05-14T02:08:43.972Z,15.15
2018-05-14T02:09:43.972Z,15.19
2018-05-14T02:10:43.968Z,15.13
2018-05-14T02:11:43.966Z,15.13
2018-05-14T02:12:43.964Z,15.12
2018-05-14T02:13:43.956Z,15.04
2018-05-14T02:14:43.953Z,15.16
2018-05-14T02:15:43.950Z,15.15
2018-05-14T02:16:43.946Z,15.13
2018-05-14T02:17:43.949Z,15.11
2018-05-14T02:18:43.949Z,15.13
2018-05-14T02:19:43.941Z,15.20
2018-05-14T02:20:43.939Z,15.16
2018-05-14T02:21:43.933Z,15.19
2018-05-14T02:22:43.926Z,15.13
2018-05-14T02:23:43.928Z,15.15
2018-05-14T02:24:43.926Z,15.16
2018-05-14T02:25:43.920Z,15.15
2018-05-14T02:26:43.914Z,15.11
2018-05-14T02:27:43.912Z,15.15
2018-05-14T02:28:43.913Z,15.04
2018-05-14T02:29:43.911Z,15.15
2018-05-14T02:30:43.909Z,15.15
2018-05-14T02:31:43.904Z,15.05
2018-05-14T02:32:43.901Z,15.01
2018-05-14T02:33:43.893Z,15.13
2018-05-14T02:34:43.955Z,14.98
2018-05-14T02:35:43.890Z,15.03
2018-05-14T02:36:43.883Z,15.15
2018-05-14T02:37:43.887Z,15.12
2018-05-14T02:38:43.882Z,15.05
2018-05-14T02:39:43.875Z,15.16
2018-05-14T02:40:43.873Z,15.07
2018-05-14T02:41:43.881Z,15.09
2018-05-14T02:42:43.870Z,15.15
2018-05-14T02:43:43.867Z,15.19
2018-05-14T02:44:43.867Z,15.13
2018-05-14T02:45:43.856Z,15.18
2018-05-14T02:46:43.853Z,15.12
2018-05-14T02:47:43.851Z,15.23
2018-05-14T02:48:43.847Z,15.12
2018-05-14T02:49:43.849Z,15.15
2018-05-14T02:50:43.844Z,15.27
2018-05-14T02:51:43.844Z,15.22
2018-05-14T02:52:43.844Z,15.20
2018-05-14T02:53:43.832Z,15.18
2018-05-14T02:54:43.828Z,15.16
2018-05-14T02:55:43.831Z,15.18
2018-05-14T02:56:43.828Z,15.15
2018-05-14T02:57:43.821Z,15.16
2018-05-14T02:58:43.816Z,15.13
2018-05-14T02:59:43.814Z,15.27
2018-05-14T03:00:43.810Z,15.22
2018-05-14T03:01:43.811Z,15.19
2018-05-14T03:02:43.809Z,15.25
2018-05-14T03:03:43.805Z,15.22
2018-05-14T03:04:43.803Z,15.23
2018-05-14T03:05:43.800Z,15.33
2018-05-14T03:06:43.793Z,15.23
2018-05-14T03:07:43.789Z,15.22
2018-05-14T03:08:43.787Z,15.25
2018-05-14T03:09:43.790Z,15.27
2018-05-14T03:10:43.785Z,15.34
2018-05-14T03:11:43.778Z,15.33
2018-05-14T03:12:43.774Z,15.30
2018-05-14T03:13:43.777Z,15.23
2018-05-14T03:14:43.779Z,15.31
2018-05-14T03:15:43.769Z,15.31
2018-05-14T03:16:43.769Z,15.31
2018-05-14T03:17:43.760Z,15.28
2018-05-14T03:18:43.756Z,15.28
2018-05-14T03:19:43.753Z,15.33
2018-05-14T03:20:43.750Z,15.31
2018-05-14T03:21:43.752Z,15.33
2018-05-14T03:22:43.748Z,15.31
2018-05-14T03:23:43.747Z,15.33
2018-05-14T03:24:43.744Z,15.33
2018-05-14T03:25:43.736Z,15.31
2018-05-14T03:26:43.732Z,15.34
2018-05-14T03:27:43.735Z,15.28
2018-05-14T03:28:43.732Z,15.34
2018-05-14T03:29:43.724Z,15.28
2018-05-14T03:30:43.721Z,15.33
2018-05-14T03:31:43.725Z,15.28
2018-05-14T03:32:43.714Z,15.28
2018-05-14T03:33:43.715Z,15.33
2018-05-14T03:34:43.712Z,15.28
2018-05-14T03:35:43.710Z,15.34
2018-05-14T03:36:43.708Z,15.31
2018-05-14T03:37:43.700Z,15.34
2018-05-14T03:38:43.697Z,15.33
2018-05-14T03:39:43.693Z,15.31
2018-05-14T03:40:43.690Z,15.31
2018-05-14T03:41:43.693Z,15.33
2018-05-14T03:42:43.691Z,15.34
2018-05-14T03:43:43.681Z,15.28
2018-05-14T03:44:43.678Z,15.33
2018-05-14T03:45:43.680Z,15.33
2018-05-14T03:46:43.729Z,15.38
2018-05-14T03:47:43.674Z,15.34
2018-05-14T03:48:43.671Z,15.37
2018-05-14T03:49:43.664Z,15.37
2018-05-14T03:50:43.659Z,15.37
2018-05-14T03:51:43.656Z,15.25
2018-05-14T03:52:43.653Z,15.27
2018-05-14T03:53:43.657Z,15.34
2018-05-14T03:54:43.652Z,15.33
2018-05-14T03:55:43.648Z,15.34
2018-05-14T03:56:43.646Z,15.38
2018-05-14T03:57:43.639Z,15.35
2018-05-14T03:58:43.639Z,15.35
2018-05-14T03:59:43.637Z,15.33
2018-05-14T04:00:43.634Z,15.35
2018-05-14T04:01:43.627Z,15.33
2018-05-14T04:02:43.623Z,15.40
2018-05-14T04:03:43.620Z,15.35
2018-05-14T04:04:43.619Z,15.34
2018-05-14T04:05:43.619Z,15.33
2018-05-14T04:06:43.616Z,15.35
2018-05-14T04:07:43.614Z,15.33
2018-05-14T04:08:43.611Z,15.37
2018-05-14T04:09:43.602Z,15.38
2018-05-14T04:10:43.609Z,15.40
2018-05-14T04:11:43.595Z,15.33
2018-05-14T04:12:43.592Z,15.35
2018-05-14T04:13:43.599Z,15.33
2018-05-14T04:14:43.590Z,15.34
2018-05-14T04:15:43.583Z,15.27
2018-05-14T04:16:43.580Z,15.31
2018-05-14T04:17:43.582Z,15.35
2018-05-14T04:18:43.579Z,15.31
2018-05-14T04:19:43.577Z,15.33
2018-05-14T04:20:43.572Z,15.28
2018-05-14T04:21:43.565Z,15.25
2018-05-14T04:22:43.561Z,15.30
2018-05-14T04:23:43.558Z,15.30
2018-05-14T04:24:43.557Z,15.33
2018-05-14T04:25:43.558Z,15.27
2018-05-14T04:26:43.554Z,15.33
2018-05-14T04:27:43.552Z,15.27
2018-05-14T04:28:43.547Z,15.34
2018-05-14T04:29:43.539Z,15.31
2018-05-14T04:30:43.536Z,15.31
2018-05-14T04:31:43.537Z,15.38
2018-05-14T04:32:43.535Z,15.37
2018-05-14T04:33:43.526Z,15.37
2018-05-14T04:34:43.524Z,15.35
2018-05-14T04:35:43.521Z,15.31
2018-05-14T04:36:43.518Z,15.28
2018-05-14T04:37:43.520Z,15.27
2018-05-14T04:38:43.523Z,15.31
2018-05-14T04:39:43.509Z,15.35
2018-05-14T04:40:43.506Z,15.33
2018-05-14T04:41:43.507Z,15.35
2018-05-14T04:42:43.504Z,15.31
2018-05-14T04:43:43.500Z,15.37
2018-05-14T04:44:43.497Z,15.33
2018-05-14T04:45:43.490Z,15.41
2018-05-14T04:46:43.486Z,15.33
2018-05-14T04:47:43.488Z,15.33
2018-05-14T04:48:43.485Z,15.38
2018-05-14T04:49:43.480Z,15.33
2018-05-14T04:50:43.474Z,15.44
2018-05-14T04:51:43.475Z,15.27
2018-05-14T04:52:43.468Z,15.41
2018-05-14T04:53:43.470Z,15.33
2018-05-14T04:54:43.467Z,15.49
2018-05-14T04:55:43.464Z,15.43
2018-05-14T04:56:43.459Z,15.41
2018-05-14T04:57:43.453Z,15.41
2018-05-14T04:58:43.449Z,15.46
2018-05-14T04:59:43.447Z,15.38
2018-05-14T05:00:43.444Z,15.43
2018-05-14T05:01:43.445Z,15.40
2018-05-14T05:02:43.441Z,15.51
2018-05-14T05:03:43.434Z,15.51
2018-05-14T05:04:43.431Z,15.49
2018-05-14T05:05:43.434Z,15.55
2018-05-14T05:06:43.430Z,15.51
2018-05-14T05:07:43.426Z,15.51
2018-05-14T05:08:43.423Z,15.48
2018-05-14T05:09:43.416Z,15.48
2018-05-14T05:10:43.415Z,15.52
2018-05-14T05:11:43.411Z,15.52
2018-05-14T05:12:43.407Z,15.66
2018-05-14T05:13:43.408Z,15.60
2018-05-14T05:14:43.408Z,15.59
2018-05-14T05:15:43.403Z,15.64
2018-05-14T05:16:43.401Z,15.71
2018-05-14T05:17:43.393Z,15.70
2018-05-14T05:18:43.389Z,15.73
2018-05-14T05:19:43.392Z,15.74
2018-05-14T05:20:43.388Z,15.86
2018-05-14T05:21:43.382Z,15.77
2018-05-14T05:22:43.412Z,15.77
2018-05-14T05:23:43.375Z,15.81
2018-05-14T05:24:43.372Z,15.88
2018-05-14T05:25:43.374Z,15.86
2018-05-14T05:26:43.371Z,15.86
2018-05-14T05:27:43.368Z,15.78
2018-05-14T05:28:43.367Z,15.84
2018-05-14T05:29:43.359Z,15.89
2018-05-14T05:30:43.355Z,15.92
2018-05-14T05:31:43.354Z,15.81
2018-05-14T05:32:43.351Z,15.86
2018-05-14T05:33:43.353Z,15.93
2018-05-14T05:34:43.351Z,15.99
2018-05-14T05:35:43.343Z,15.96
2018-05-14T05:36:43.341Z,15.98
2018-05-14T05:37:43.409Z,15.96
2018-05-14T05:38:43.339Z,15.92
2018-05-14T05:39:43.337Z,16.03
2018-05-14T05:40:43.334Z,15.92
2018-05-14T05:41:43.327Z,16.07
2018-05-14T05:42:43.323Z,16.01
2018-05-14T05:43:43.326Z,15.98
2018-05-14T05:44:43.319Z,16.07
2018-05-14T05:45:43.322Z,16.07
2018-05-14T05:46:43.326Z,16.06
2018-05-14T05:47:43.316Z,16.18
2018-05-14T05:48:43.313Z,16.16
2018-05-14T05:49:43.306Z,16.17
2018-05-14T05:50:43.305Z,16.14
2018-05-14T05:51:43.305Z,16.27
2018-05-14T05:52:43.303Z,16.27
2018-05-14T05:53:43.296Z,16.26
2018-05-14T05:54:43.294Z,16.32
2018-05-14T05:55:43.292Z,16.26
2018-05-14T05:56:43.289Z,16.32
2018-05-14T05:57:43.291Z,16.34
2018-05-14T05:58:43.289Z,16.40
2018-05-14T05:59:43.287Z,16.36
2018-05-14T06:00:43.285Z,16.34
2018-05-14T06:01:43.278Z,16.30
2018-05-14T06:02:43.274Z,16.37
2018-05-14T06:03:43.274Z,16.34
2018-05-14T06:04:43.274Z,16.33
2018-05-14T06:05:43.273Z,16.36
2018-05-14T06:06:43.270Z,16.41
2018-05-14T06:07:43.263Z,16.36
2018-05-14T06:08:43.260Z,16.37
2018-05-14T06:09:43.263Z,16.42
2018-05-14T06:10:43.260Z,16.44
2018-05-14T06:11:43.258Z,16.36
2018-05-14T06:12:43.256Z,16.37
2018-05-14T06:13:43.251Z,16.47
2018-05-14T06:14:43.247Z,16.44
2018-05-14T06:15:43.244Z,16.47
2018-05-14T06:16:43.243Z,16.50
2018-05-14T06:17:43.245Z,16.47
2018-05-14T06:18:43.243Z,16.54
2018-05-14T06:19:43.239Z,16.59
2018-05-14T06:20:43.237Z,16.60
2018-05-14T06:21:43.231Z,16.65
2018-05-14T06:22:43.229Z,16.67
2018-05-14T06:23:43.230Z,16.63
2018-05-14T06:24:43.229Z,16.69
2018-05-14T06:25:43.224Z,16.67
2018-05-14T06:26:43.221Z,16.63
2018-05-14T06:27:43.263Z,16.67
2018-05-14T06:28:43.215Z,16.69
2018-05-14T06:29:43.224Z,16.75
2018-05-14T06:30:43.215Z,16.78
2018-05-14T06:31:43.219Z,16.77
2018-05-14T06:32:43.218Z,16.80
2018-05-14T06:33:43.206Z,16.81
2018-05-14T06:34:43.203Z,16.78
2018-05-14T06:35:43.232Z,16.81
2018-05-14T06:36:43.201Z,16.77
2018-05-14T06:37:43.203Z,16.87
2018-05-14T06:38:43.200Z,16.90
2018-05-14T06:39:43.197Z,16.95
2018-05-14T06:40:43.193Z,16.85
2018-05-14T06:41:43.195Z,16.85
2018-05-14T06:42:43.192Z,16.87
2018-05-14T06:43:43.192Z,16.96
2018-05-14T06:44:43.190Z,17.06
2018-05-14T06:45:43.185Z,17.05
2018-05-14T06:46:43.182Z,17.10
2018-05-14T06:47:43.180Z,17.07
2018-05-14T06:48:43.178Z,17.15
2018-05-14T06:49:43.211Z,17.07
2018-05-14T06:50:43.179Z,17.10
2018-05-14T06:51:43.177Z,17.14
2018-05-14T06:52:43.177Z,17.22
2018-05-14T06:53:43.170Z,17.22
2018-05-14T06:54:43.171Z,17.25
2018-05-14T06:55:43.172Z,17.36
2018-05-14T06:56:43.169Z,17.39
2018-05-14T06:57:43.163Z,17.42
2018-05-14T06:58:43.161Z,17.39
2018-05-14T06:59:43.160Z,17.46
2018-05-14T07:00:43.160Z,17.46
2018-05-14T07:01:43.321Z,17.60
2018-05-14T07:02:43.161Z,17.57
2018-05-14T07:03:43.158Z,17.62
2018-05-14T07:04:43.158Z,17.63
2018-05-14T07:05:43.152Z,17.63
2018-05-14T07:06:43.149Z,17.65
2018-05-14T07:07:43.149Z,17.76
2018-05-14T07:08:43.148Z,17.76
2018-05-14T07:09:43.151Z,17.77
2018-05-14T07:10:43.152Z,17.79
2018-05-14T07:11:43.143Z,17.91
2018-05-14T07:12:43.143Z,17.91
2018-05-14T07:13:43.146Z,17.96
2018-05-14T07:14:43.144Z,17.99
2018-05-14T07:15:43.143Z,18.01
2018-05-14T07:16:43.142Z,17.96
2018-05-14T07:17:43.138Z,17.99
2018-05-14T07:18:43.135Z,17.94
2018-05-14T07:19:43.135Z,18.05
2018-05-14T07:20:43.133Z,18.01
2018-05-14T07:21:43.138Z,18.07
2018-05-14T07:22:43.137Z,18.05
2018-05-14T07:23:43.136Z,18.16
2018-05-14T07:24:43.222Z,18.21
2018-05-14T07:25:43.130Z,18.25
2018-05-14T07:26:43.127Z,18.34
2018-05-14T07:27:43.132Z,18.68
2018-05-14T07:28:43.131Z,18.87
2018-05-14T07:29:43.126Z,19.23
2018-05-14T07:30:43.125Z,19.98
2018-05-14T07:31:43.124Z,21.09
2018-05-14T07:32:43.124Z,21.56
2018-05-14T07:33:43.130Z,22.04
2018-05-14T07:34:43.128Z,22.49
2018-05-14T07:35:43.128Z,22.38
2018-05-14T07:36:43.137Z,21.96
2018-05-14T07:37:43.127Z,21.42
2018-05-14T07:38:43.127Z,21.15
2018-05-14T07:39:43.128Z,21.05
2018-05-14T07:40:43.130Z,21.06
2018-05-14T07:41:43.136Z,20.94
2018-05-14T07:42:43.139Z,21.09
2018-05-14T07:43:43.136Z,21.13
2018-05-14T07:44:43.136Z,21.34
2018-05-14T07:45:43.144Z,21.94
2018-05-14T07:46:43.144Z,22.78
2018-05-14T07:47:43.146Z,22.82
2018-05-14T07:48:43.148Z,22.82
2018-05-14T07:49:43.146Z,22.74
2018-05-14T07:50:43.150Z,23.03
2018-05-14T07:51:43.151Z,22.89
2018-05-14T07:52:43.154Z,22.89
2018-05-14T07:53:43.161Z,22.78
2018-05-14T07:54:43.165Z,22.63
2018-05-14T07:55:43.166Z,22.45
2018-05-14T07:56:43.169Z,22.36
2018-05-14T07:57:43.169Z,22.05
2018-05-14T07:58:43.172Z,22.20
2018-05-14T07:59:43.179Z,22.24
2018-05-14T08:00:43.181Z,22.12
2018-05-14T08:01:43.258Z,21.85
2018-05-14T08:02:43.184Z,21.73
2018-05-14T08:03:43.186Z,21.86
2018-05-14T08:04:43.189Z,21.64
2018-05-14T08:05:43.408Z,21.68
2018-05-14T08:06:43.199Z,21.33
2018-05-14T08:07:43.205Z,21.26
2018-05-14T08:08:43.207Z,21.52
2018-05-14T08:09:43.205Z,21.66
2018-05-14T08:10:43.208Z,22.15
2018-05-14T08:11:43.299Z,21.89
2018-05-14T08:12:43.215Z,21.49
2018-05-14T08:13:43.222Z,21.38
2018-05-14T08:14:43.224Z,21.70
2018-05-14T08:15:43.225Z,21.71
2018-05-14T08:16:43.227Z,21.48
2018-05-14T08:17:43.237Z,21.15
2018-05-14T08:18:43.241Z,21.15
2018-05-14T08:19:43.242Z,21.83
2018-05-14T08:20:43.246Z,23.09
2018-05-14T08:21:43.245Z,24.02
2018-05-14T08:22:43.251Z,25.04
2018-05-14T08:23:43.251Z,25.76
2018-05-14T08:24:43.255Z,26.19
2018-05-14T08:25:43.266Z,26.36
2018-05-14T08:26:43.269Z,27.21
2018-05-14T08:27:43.274Z,28.18
2018-05-14T08:28:43.280Z,28.35
2018-05-14T08:29:43.283Z,26.86
2018-05-14T08:30:43.288Z,26.84
2018-05-14T08:31:43.299Z,27.09
2018-05-14T08:32:43.318Z,27.06
2018-05-14T08:33:43.309Z,27.20
2018-05-14T08:34:43.318Z,27.09
2018-05-14T08:35:43.329Z,27.50
2018-05-14T08:36:43.334Z,27.15
2018-05-14T08:37:43.348Z,26.51
2018-05-14T08:38:43.356Z,26.03
2018-05-14T08:39:43.365Z,25.56
2018-05-14T08:40:43.374Z,26.66
2018-05-14T08:41:43.377Z,27.95
2018-05-14T08:42:43.388Z,28.15
2018-05-14T08:43:43.398Z,28.65
2018-05-14T08:44:43.407Z,27.71
2018-05-14T08:45:43.416Z,27.05
2018-05-14T08:46:43.427Z,26.31
2018-05-14T08:47:43.430Z,26.20
2018-05-14T08:48:43.440Z,25.35
2018-05-14T08:49:43.453Z,25.41
2018-05-14T08:50:43.462Z,25.57
2018-05-14T08:51:43.472Z,25.76
2018-05-14T08:52:43.480Z,26.08
2018-05-14T08:53:43.485Z,26.38
2018-05-14T08:54:43.579Z,26.93
2018-05-14T08:55:43.501Z,27.55
2018-05-14T08:56:43.511Z,27.53
2018-05-14T08:57:43.587Z,27.68
2018-05-14T08:58:43.531Z,27.90
2018-05-14T08:59:43.541Z,27.13
2018-05-14T09:00:43.565Z,26.73
2018-05-14T09:01:43.551Z,27.83
2018-05-14T09:02:43.560Z,28.72
2018-05-14T09:03:43.572Z,29.51
2018-05-14T09:04:43.583Z,30.32
2018-05-14T09:05:43.587Z,31.25
2018-05-14T09:06:43.594Z,31.92
2018-05-14T09:07:43.606Z,31.13
2018-05-14T09:08:43.634Z,31.34
2018-05-14T09:09:43.631Z,30.10
2018-05-14T09:10:43.640Z,28.97
2018-05-14T09:11:43.652Z,28.69
2018-05-14T09:12:43.662Z,28.48
2018-05-14T09:13:43.669Z,28.70
2018-05-14T09:14:43.680Z,28.42
2018-05-14T09:15:43.691Z,29.08
2018-05-14T09:16:43.706Z,28.61
2018-05-14T09:17:43.719Z,28.17
2018-05-14T09:18:43.732Z,29.23
2018-05-14T09:19:43.796Z,30.37
2018-05-14T09:20:43.750Z,31.16
2018-05-14T09:21:43.769Z,32.06
2018-05-14T09:22:43.782Z,33.00
2018-05-14T09:23:43.792Z,33.84
2018-05-14T09:24:43.804Z,34.83
2018-05-14T09:25:43.813Z,34.28
2018-05-14T09:26:43.825Z,34.43
2018-05-14T09:27:43.838Z,34.52
2018-05-14T09:28:43.853Z,35.13
2018-05-14T09:29:43.873Z,35.49
2018-05-14T09:30:43.886Z,35.02
2018-05-14T09:31:43.902Z,35.24
2018-05-14T09:32:43.917Z,35.50
2018-05-14T09:33:43.928Z,35.80
2018-05-14T09:34:43.943Z,34.18
2018-05-14T09:35:43.963Z,33.02
2018-05-14T09:36:44.027Z,33.86
2018-05-14T09:37:43.991Z,34.27
2018-05-14T09:38:44.007Z,35.02
2018-05-14T09:39:44.024Z,35.62
2018-05-14T09:40:44.040Z,36.15
2018-05-14T09:41:44.064Z,35.85
2018-05-14T09:42:44.078Z,35.10
2018-05-14T09:43:44.094Z,35.50
2018-05-14T09:44:44.114Z,35.87
2018-05-14T09:45:44.125Z,36.22
2018-05-14T09:46:44.141Z,35.62
2018-05-14T09:47:44.158Z,35.61
2018-05-14T09:48:44.176Z,36.06
2018-05-14T09:49:44.199Z,36.30
2018-05-14T09:50:44.218Z,36.12
2018-05-14T09:51:44.227Z,35.95
2018-05-14T09:52:44.245Z,35.96
2018-05-14T09:53:44.267Z,35.95
2018-05-14T09:54:44.284Z,34.81
2018-05-14T09:55:44.304Z,34.94
2018-05-14T09:56:44.320Z,34.09
2018-05-14T09:57:44.334Z,34.03
2018-05-14T09:58:44.350Z,34.52
2018-05-14T09:59:44.369Z,34.88
2018-05-14T10:00:44.386Z,35.78
2018-05-14T10:01:44.410Z,36.06
2018-05-14T10:02:44.426Z,36.44
2018-05-14T10:03:44.445Z,35.69
2018-05-14T10:04:44.674Z,33.90
2018-05-14T10:05:44.475Z,34.26
2018-05-14T10:06:44.492Z,34.48
2018-05-14T10:07:44.516Z,34.14
2018-05-14T10:08:44.532Z,33.96
2018-05-14T10:09:44.545Z,33.21
2018-05-14T10:10:44.566Z,31.84
2018-05-14T10:11:44.579Z,31.07
2018-05-14T10:12:44.597Z,32.07
2018-05-14T10:13:44.618Z,32.50
2018-05-14T10:14:44.634Z,33.21
2018-05-14T10:15:44.651Z,34.24
2018-05-14T10:16:44.677Z,34.95
2018-05-14T10:17:44.681Z,34.69
2018-05-14T10:18:44.799Z,33.49
2018-05-14T10:19:44.713Z,32.87
2018-05-14T10:20:44.736Z,32.72
2018-05-14T10:21:44.753Z,32.87
2018-05-14T10:22:44.768Z,32.44
2018-05-14T10:23:44.781Z,32.10
2018-05-14T10:24:44.900Z,32.61
2018-05-14T10:25:44.819Z,32.44
2018-05-14T10:26:44.835Z,32.17
2018-05-14T10:27:44.850Z,32.47
2018-05-14T10:28:44.866Z,32.95
2018-05-14T10:29:44.883Z,33.43
2018-05-14T10:30:44.894Z,34.27
2018-05-14T10:31:44.910Z,34.69
2018-05-14T10:32:44.931Z,33.66
2018-05-14T10:33:44.948Z,33.71
2018-05-14T10:34:44.962Z,33.65
2018-05-14T10:35:44.980Z,33.62
2018-05-14T10:36:44.996Z,34.06
2018-05-14T10:37:45.012Z,33.57
2018-05-14T10:38:45.027Z,33.20
2018-05-14T10:39:45.044Z,32.76
2018-05-14T10:40:45.150Z,32.61
2018-05-14T10:41:45.071Z,32.02
2018-05-14T10:42:45.088Z,31.84
2018-05-14T10:43:45.105Z,31.98
2018-05-14T10:44:45.118Z,32.25
2018-05-14T10:45:45.138Z,32.73
2018-05-14T10:46:45.187Z,32.03
2018-05-14T10:47:45.169Z,31.79
2018-05-14T10:48:45.185Z,32.09
2018-05-14T10:49:45.196Z,32.49
2018-05-14T10:50:45.210Z,32.03
2018-05-14T10:51:45.227Z,32.17
2018-05-14T10:52:45.321Z,32.32
2018-05-14T10:53:45.264Z,31.40
2018-05-14T10:54:45.279Z,31.85
2018-05-14T10:55:45.289Z,32.25
2018-05-14T10:56:45.304Z,30.79
2018-05-14T10:57:45.325Z,31.31
2018-05-14T10:58:45.389Z,31.69
2018-05-14T10:59:45.353Z,30.96
2018-05-14T11:00:45.370Z,30.82
2018-05-14T11:01:45.379Z,30.11
2018-05-14T11:02:45.394Z,30.18
2018-05-14T11:03:45.409Z,30.94
2018-05-14T11:04:45.425Z,31.07
2018-05-14T11:05:45.447Z,31.30
2018-05-14T11:06:45.462Z,31.19
2018-05-14T11:07:45.475Z,31.31
2018-05-14T11:08:45.491Z,31.56
2018-05-14T11:09:45.503Z,31.62
2018-05-14T11:10:45.515Z,32.07
2018-05-14T11:11:45.536Z,32.12
2018-05-14T11:12:45.549Z,31.16
2018-05-14T11:13:45.559Z,30.72
2018-05-14T11:14:45.601Z,30.76
2018-05-14T11:15:45.585Z,30.25
2018-05-14T11:16:45.606Z,29.45
2018-05-14T11:17:45.625Z,29.23
2018-05-14T11:18:45.748Z,29.47
2018-05-14T11:19:45.655Z,28.72
2018-05-14T11:20:45.660Z,28.65
2018-05-14T11:21:45.670Z,28.45
2018-05-14T11:22:45.686Z,28.27
2018-05-14T11:23:45.765Z,28.08
2018-05-14T11:24:45.709Z,27.65
2018-05-14T11:25:45.723Z,27.50
2018-05-14T11:26:45.737Z,27.52
2018-05-14T11:27:45.797Z,27.49
2018-05-14T11:28:45.752Z,27.08
2018-05-14T11:29:45.767Z,27.05
2018-05-14T11:30:45.777Z,26.73
2018-05-14T11:31:45.787Z,26.54
2018-05-14T11:32:45.797Z,26.69
2018-05-14T11:33:45.801Z,26.76
2018-05-14T11:34:45.810Z,26.83
2018-05-14T11:35:45.819Z,27.02
2018-05-14T11:36:45.834Z,27.08
2018-05-14T11:37:45.840Z,26.96
2018-05-14T11:38:45.848Z,27.06
2018-05-14T11:39:45.854Z,26.73
2018-05-14T11:40:45.863Z,26.60
2018-05-14T11:41:45.865Z,26.65
2018-05-14T11:42:45.872Z,26.69
2018-05-14T11:43:45.889Z,26.73
2018-05-14T11:44:45.891Z,26.84
2018-05-14T11:45:45.895Z,26.79
2018-05-14T11:46:45.905Z,26.84
2018-05-14T11:47:45.913Z,26.93
2018-05-14T11:48:45.913Z,26.88
2018-05-14T11:49:45.925Z,27.02
2018-05-14T11:50:46.012Z,26.84
2018-05-14T11:51:45.938Z,26.61
2018-05-14T11:52:45.948Z,26.69
2018-05-14T11:53:45.945Z,26.34
2018-05-14T11:54:45.952Z,26.29
2018-05-14T11:55:45.957Z,26.56
2018-05-14T11:56:46.000Z,26.53
2018-05-14T11:57:45.974Z,26.44
2018-05-14T11:58:45.978Z,26.28
2018-05-14T11:59:45.979Z,26.32
2018-05-14T12:00:45.986Z,26.12
2018-05-14T12:01:45.996Z,26.13
2018-05-14T12:02:46.046Z,26.27
2018-05-14T12:03:46.008Z,26.38
2018-05-14T12:04:46.013Z,26.39
2018-05-14T12:05:46.013Z,26.28
2018-05-14T12:06:46.018Z,26.34
2018-05-14T12:07:46.026Z,26.42
2018-05-14T12:08:46.028Z,26.42
2018-05-14T12:09:46.038Z,26.46
2018-05-14T12:10:46.062Z,26.42
2018-05-14T12:11:46.052Z,26.09
2018-05-14T12:12:46.054Z,26.17
2018-05-14T12:13:46.054Z,26.20
2018-05-14T12:14:46.058Z,26.27
2018-05-14T12:15:46.069Z,26.11
2018-05-14T12:16:46.075Z,26.13
2018-05-14T12:17:46.073Z,26.23
2018-05-14T12:18:46.080Z,26.29
2018-05-14T12:19:46.083Z,26.32
2018-05-14T12:20:46.087Z,26.29
2018-05-14T12:21:46.097Z,26.24
2018-05-14T12:22:46.100Z,26.24
2018-05-14T12:23:46.105Z,26.36
2018-05-14T12:24:46.109Z,26.38
2018-05-14T12:25:46.143Z,26.34
2018-05-14T12:26:46.114Z,26.31
2018-05-14T12:27:46.119Z,26.11
2018-05-14T12:28:46.123Z,26.19
2018-05-14T12:29:46.137Z,26.27
2018-05-14T12:30:46.138Z,26.28
2018-05-14T12:31:46.137Z,26.38
2018-05-14T12:32:46.141Z,26.38
2018-05-14T12:33:46.150Z,26.41
2018-05-14T12:34:46.159Z,26.51
2018-05-14T12:35:46.159Z,26.66
2018-05-14T12:36:46.164Z,26.68
2018-05-14T12:37:46.168Z,26.71
2018-05-14T12:38:46.171Z,26.72
2018-05-14T12:39:46.172Z,26.72
2018-05-14T12:40:46.177Z,26.41
2018-05-14T12:41:46.187Z,26.42
2018-05-14T12:42:46.195Z,26.34
2018-05-14T12:43:46.195Z,26.21
2018-05-14T12:44:46.199Z,26.21
2018-05-14T12:45:46.199Z,26.20
2018-05-14T12:46:46.204Z,26.23
2018-05-14T12:47:46.216Z,26.23
2018-05-14T12:48:46.216Z,26.27
2018-05-14T12:49:46.217Z,26.35
2018-05-14T12:50:46.220Z,26.35
2018-05-14T12:51:46.225Z,26.44
2018-05-14T12:52:46.229Z,26.44